sensor_id;sensor_type;location;lat;lon;timestamp;P1;durP1;ratioP1;P2;durP2;ratioP2
68140;SDS011;54941;52.220;104.306;2023-04-07T00:01:59;2.15;;;0.70;;
68140;SDS011;54941;52.220;104.306;2023-04-07T00:04:25;1.50;;;0.57;;
68140;SDS011;54941;52.220;104.306;2023-04-07T00:06:51;2.35;;;0.85;;
68140;SDS011;54941;52.220;104.306;2023-04-07T00:09:18;2.65;;;0.70;;
68140;SDS011;54941;52.220;104.306;2023-04-07T00:11:44;2.28;;;0.80;;
68140;SDS011;54941;52.220;104.306;2023-04-07T00:14:11;1.50;;;0.65;;
68140;SDS011;54941;52.220;104.306;2023-04-07T00:16:38;3.05;;;0.88;;
68140;SDS011;54941;52.220;104.306;2023-04-07T00:19:05;2.33;;;0.75;;
68140;SDS011;54941;52.220;104.306;2023-04-07T00:21:32;1.58;;;0.52;;
68140;SDS011;54941;52.220;104.306;2023-04-07T00:23:58;2.05;;;0.70;;
68140;SDS011;54941;52.220;104.306;2023-04-07T00:26:26;2.22;;;0.63;;
68140;SDS011;54941;52.220;104.306;2023-04-07T00:28:52;3.15;;;0.80;;
68140;SDS011;54941;52.220;104.306;2023-04-07T00:31:19;1.38;;;0.40;;
68140;SDS011;54941;52.220;104.306;2023-04-07T00:33:48;2.45;;;0.60;;
68140;SDS011;54941;52.220;104.306;2023-04-07T00:36:15;2.10;;;0.60;;
68140;SDS011;54941;52.220;104.306;2023-04-07T00:38:41;1.85;;;0.50;;
68140;SDS011;54941;52.220;104.306;2023-04-07T00:41:08;1.98;;;0.75;;
68140;SDS011;54941;52.220;104.306;2023-04-07T00:43:34;2.28;;;0.60;;
68140;SDS011;54941;52.220;104.306;2023-04-07T00:46:00;3.33;;;0.80;;
68140;SDS011;54941;52.220;104.306;2023-04-07T00:48:27;2.63;;;0.73;;
68140;SDS011;54941;52.220;104.306;2023-04-07T00:50:55;1.77;;;0.70;;
68140;SDS011;54941;52.220;104.306;2023-04-07T00:53:24;2.08;;;0.75;;
68140;SDS011;54941;52.220;104.306;2023-04-07T00:55:50;1.90;;;0.70;;
68140;SDS011;54941;52.220;104.306;2023-04-07T00:58:17;2.30;;;0.70;;
68140;SDS011;54941;52.220;104.306;2023-04-07T01:00:44;1.98;;;0.65;;
68140;SDS011;54941;52.220;104.306;2023-04-07T01:03:17;2.00;;;0.55;;
68140;SDS011;54941;52.220;104.306;2023-04-07T01:05:52;2.63;;;0.80;;
68140;SDS011;54941;52.220;104.306;2023-04-07T01:08:25;2.17;;;0.65;;
68140;SDS011;54941;52.220;104.306;2023-04-07T01:10:59;3.63;;;0.70;;
68140;SDS011;54941;52.220;104.306;2023-04-07T01:13:31;1.58;;;0.60;;
68140;SDS011;54941;52.220;104.306;2023-04-07T01:16:02;2.55;;;0.90;;
68140;SDS011;54941;52.220;104.306;2023-04-07T01:18:34;2.10;;;0.80;;
68140;SDS011;54941;52.220;104.306;2023-04-07T01:23:38;1.67;;;0.55;;
68140;SDS011;54941;52.220;104.306;2023-04-07T01:26:27;1.73;;;0.60;;
68140;SDS011;54941;52.220;104.306;2023-04-07T01:28:59;2.58;;;0.90;;
68140;SDS011;54941;52.220;104.306;2023-04-07T01:31:36;3.05;;;0.90;;
68140;SDS011;54941;52.220;104.306;2023-04-07T01:34:08;2.28;;;0.70;;
68140;SDS011;54941;52.220;104.306;2023-04-07T01:36:36;3.63;;;0.68;;
68140;SDS011;54941;52.220;104.306;2023-04-07T01:39:02;2.22;;;0.80;;
68140;SDS011;54941;52.220;104.306;2023-04-07T01:41:30;2.80;;;0.85;;
68140;SDS011;54941;52.220;104.306;2023-04-07T01:43:57;3.42;;;0.90;;
68140;SDS011;54941;52.220;104.306;2023-04-07T01:46:25;2.70;;;0.90;;
68140;SDS011;54941;52.220;104.306;2023-04-07T01:48:53;2.30;;;0.80;;
68140;SDS011;54941;52.220;104.306;2023-04-07T01:51:26;2.05;;;0.80;;
68140;SDS011;54941;52.220;104.306;2023-04-07T01:53:55;1.98;;;0.70;;
68140;SDS011;54941;52.220;104.306;2023-04-07T01:56:21;1.98;;;0.70;;
68140;SDS011;54941;52.220;104.306;2023-04-07T01:58:48;2.03;;;0.70;;
68140;SDS011;54941;52.220;104.306;2023-04-07T02:01:14;2.35;;;0.73;;
68140;SDS011;54941;52.220;104.306;2023-04-07T02:03:43;2.85;;;0.40;;
68140;SDS011;54941;52.220;104.306;2023-04-07T02:06:17;1.95;;;0.60;;
68140;SDS011;54941;52.220;104.306;2023-04-07T02:08:45;2.40;;;0.80;;
68140;SDS011;54941;52.220;104.306;2023-04-07T02:11:16;2.00;;;0.57;;
68140;SDS011;54941;52.220;104.306;2023-04-07T02:13:45;3.42;;;0.60;;
68140;SDS011;54941;52.220;104.306;2023-04-07T02:16:32;2.20;;;0.52;;
68140;SDS011;54941;52.220;104.306;2023-04-07T02:19:00;1.88;;;0.40;;
68140;SDS011;54941;52.220;104.306;2023-04-07T02:21:28;1.70;;;0.60;;
68140;SDS011;54941;52.220;104.306;2023-04-07T02:23:55;1.40;;;0.57;;
68140;SDS011;54941;52.220;104.306;2023-04-07T02:26:21;1.88;;;0.63;;
68140;SDS011;54941;52.220;104.306;2023-04-07T02:28:50;2.13;;;0.70;;
68140;SDS011;54941;52.220;104.306;2023-04-07T02:31:16;1.65;;;0.75;;
68140;SDS011;54941;52.220;104.306;2023-04-07T02:33:43;2.80;;;0.82;;
68140;SDS011;54941;52.220;104.306;2023-04-07T02:36:09;1.95;;;0.50;;
68140;SDS011;54941;52.220;104.306;2023-04-07T02:38:37;1.98;;;0.75;;
68140;SDS011;54941;52.220;104.306;2023-04-07T02:41:03;1.67;;;0.80;;
68140;SDS011;54941;52.220;104.306;2023-04-07T02:43:30;1.98;;;0.60;;
68140;SDS011;54941;52.220;104.306;2023-04-07T02:45:56;2.08;;;0.70;;
68140;SDS011;54941;52.220;104.306;2023-04-07T02:48:22;1.40;;;0.57;;
68140;SDS011;54941;52.220;104.306;2023-04-07T02:50:49;2.45;;;0.82;;
68140;SDS011;54941;52.220;104.306;2023-04-07T02:53:15;1.95;;;0.70;;
68140;SDS011;54941;52.220;104.306;2023-04-07T02:55:44;2.20;;;0.70;;
68140;SDS011;54941;52.220;104.306;2023-04-07T02:58:10;3.08;;;0.77;;
68140;SDS011;54941;52.220;104.306;2023-04-07T03:00:39;1.95;;;0.70;;
68140;SDS011;54941;52.220;104.306;2023-04-07T03:03:06;1.77;;;0.70;;
68140;SDS011;54941;52.220;104.306;2023-04-07T03:05:32;2.05;;;0.80;;
68140;SDS011;54941;52.220;104.306;2023-04-07T03:07:58;2.13;;;0.63;;
68140;SDS011;54941;52.220;104.306;2023-04-07T03:10:25;2.60;;;0.82;;
68140;SDS011;54941;52.220;104.306;2023-04-07T03:12:52;3.70;;;0.73;;
68140;SDS011;54941;52.220;104.306;2023-04-07T03:15:21;2.38;;;0.73;;
68140;SDS011;54941;52.220;104.306;2023-04-07T03:17:48;1.83;;;0.60;;
68140;SDS011;54941;52.220;104.306;2023-04-07T03:20:14;2.30;;;0.63;;
68140;SDS011;54941;52.220;104.306;2023-04-07T03:22:41;2.50;;;0.85;;
68140;SDS011;54941;52.220;104.306;2023-04-07T03:25:07;2.42;;;0.60;;
68140;SDS011;54941;52.220;104.306;2023-04-07T03:27:34;1.65;;;0.65;;
68140;SDS011;54941;52.220;104.306;2023-04-07T03:30:02;1.90;;;0.63;;
68140;SDS011;54941;52.220;104.306;2023-04-07T03:32:29;2.30;;;0.75;;
68140;SDS011;54941;52.220;104.306;2023-04-07T03:34:56;1.60;;;0.57;;
68140;SDS011;54941;52.220;104.306;2023-04-07T03:37:22;1.42;;;0.55;;
68140;SDS011;54941;52.220;104.306;2023-04-07T03:39:48;2.45;;;0.70;;
68140;SDS011;54941;52.220;104.306;2023-04-07T03:42:17;1.67;;;0.40;;
68140;SDS011;54941;52.220;104.306;2023-04-07T03:47:11;1.48;;;0.57;;
68140;SDS011;54941;52.220;104.306;2023-04-07T03:49:40;2.28;;;0.60;;
68140;SDS011;54941;52.220;104.306;2023-04-07T03:52:06;2.75;;;0.70;;
68140;SDS011;54941;52.220;104.306;2023-04-07T03:54:32;1.40;;;0.50;;
68140;SDS011;54941;52.220;104.306;2023-04-07T03:56:59;2.30;;;0.70;;
68140;SDS011;54941;52.220;104.306;2023-04-07T03:59:25;3.28;;;0.80;;
68140;SDS011;54941;52.220;104.306;2023-04-07T04:01:52;1.75;;;0.60;;
68140;SDS011;54941;52.220;104.306;2023-04-07T04:04:20;1.50;;;0.60;;
68140;SDS011;54941;52.220;104.306;2023-04-07T04:06:46;2.70;;;0.60;;
68140;SDS011;54941;52.220;104.306;2023-04-07T04:09:13;2.97;;;0.60;;
68140;SDS011;54941;52.220;104.306;2023-04-07T04:11:39;2.15;;;0.73;;
68140;SDS011;54941;52.220;104.306;2023-04-07T04:14:06;2.05;;;0.55;;
68140;SDS011;54941;52.220;104.306;2023-04-07T04:16:32;1.50;;;0.60;;
68140;SDS011;54941;52.220;104.306;2023-04-07T04:18:59;1.50;;;0.60;;
68140;SDS011;54941;52.220;104.306;2023-04-07T04:21:26;3.22;;;0.70;;
68140;SDS011;54941;52.220;104.306;2023-04-07T04:23:53;1.50;;;0.60;;
68140;SDS011;54941;52.220;104.306;2023-04-07T04:26:19;2.10;;;0.50;;
68140;SDS011;54941;52.220;104.306;2023-04-07T04:28:46;3.03;;;0.60;;
68140;SDS011;54941;52.220;104.306;2023-04-07T04:31:12;3.40;;;0.70;;
68140;SDS011;54941;52.220;104.306;2023-04-07T04:33:39;1.48;;;0.60;;
68140;SDS011;54941;52.220;104.306;2023-04-07T04:36:05;1.63;;;0.47;;
68140;SDS011;54941;52.220;104.306;2023-04-07T04:38:33;1.35;;;0.50;;
68140;SDS011;54941;52.220;104.306;2023-04-07T04:41:20;1.30;;;0.45;;
68140;SDS011;54941;52.220;104.306;2023-04-07T04:43:47;1.50;;;0.50;;
68140;SDS011;54941;52.220;104.306;2023-04-07T04:46:15;1.80;;;0.60;;
68140;SDS011;54941;52.220;104.306;2023-04-07T04:48:42;1.85;;;0.60;;
68140;SDS011;54941;52.220;104.306;2023-04-07T04:51:08;2.28;;;0.60;;
68140;SDS011;54941;52.220;104.306;2023-04-07T04:53:36;2.22;;;1.00;;
68140;SDS011;54941;52.220;104.306;2023-04-07T04:56:02;2.45;;;0.90;;
68140;SDS011;54941;52.220;104.306;2023-04-07T04:58:29;2.63;;;0.60;;
68140;SDS011;54941;52.220;104.306;2023-04-07T05:01:00;1.83;;;0.57;;
68140;SDS011;54941;52.220;104.306;2023-04-07T05:03:27;1.40;;;0.47;;
68140;SDS011;54941;52.220;104.306;2023-04-07T05:05:53;1.77;;;0.60;;
68140;SDS011;54941;52.220;104.306;2023-04-07T05:08:19;1.80;;;0.50;;
68140;SDS011;54941;52.220;104.306;2023-04-07T05:10:47;1.65;;;0.50;;
68140;SDS011;54941;52.220;104.306;2023-04-07T05:13:14;2.00;;;0.52;;
68140;SDS011;54941;52.220;104.306;2023-04-07T05:15:40;1.58;;;0.50;;
68140;SDS011;54941;52.220;104.306;2023-04-07T05:18:07;3.22;;;0.80;;
68140;SDS011;54941;52.220;104.306;2023-04-07T05:20:33;1.23;;;0.50;;
68140;SDS011;54941;52.220;104.306;2023-04-07T05:22:59;1.55;;;0.47;;
68140;SDS011;54941;52.220;104.306;2023-04-07T05:25:26;1.63;;;0.50;;
68140;SDS011;54941;52.220;104.306;2023-04-07T05:27:54;2.17;;;0.60;;
68140;SDS011;54941;52.220;104.306;2023-04-07T05:30:20;1.90;;;0.60;;
68140;SDS011;54941;52.220;104.306;2023-04-07T05:32:46;2.15;;;0.50;;
68140;SDS011;54941;52.220;104.306;2023-04-07T05:35:13;1.95;;;0.60;;
68140;SDS011;54941;52.220;104.306;2023-04-07T05:37:39;1.30;;;0.50;;
68140;SDS011;54941;52.220;104.306;2023-04-07T05:40:06;1.35;;;0.43;;
68140;SDS011;54941;52.220;104.306;2023-04-07T05:42:33;1.60;;;0.50;;
68140;SDS011;54941;52.220;104.306;2023-04-07T05:45:02;1.30;;;0.43;;
68140;SDS011;54941;52.220;104.306;2023-04-07T05:47:29;2.83;;;0.50;;
68140;SDS011;54941;52.220;104.306;2023-04-07T05:49:56;1.77;;;0.60;;
68140;SDS011;54941;52.220;104.306;2023-04-07T05:52:22;2.08;;;0.70;;
68140;SDS011;54941;52.220;104.306;2023-04-07T05:54:48;3.17;;;0.70;;
68140;SDS011;54941;52.220;104.306;2023-04-07T05:57:15;1.55;;;0.50;;
68140;SDS011;54941;52.220;104.306;2023-04-07T05:59:41;1.38;;;0.50;;
68140;SDS011;54941;52.220;104.306;2023-04-07T06:02:09;0.90;;;0.30;;
68140;SDS011;54941;52.220;104.306;2023-04-07T06:04:36;1.10;;;0.43;;
68140;SDS011;54941;52.220;104.306;2023-04-07T06:07:02;2.00;;;0.40;;
68140;SDS011;54941;52.220;104.306;2023-04-07T06:09:28;1.50;;;0.50;;
68140;SDS011;54941;52.220;104.306;2023-04-07T06:11:55;1.58;;;0.40;;
68140;SDS011;54941;52.220;104.306;2023-04-07T06:14:21;1.63;;;0.50;;
68140;SDS011;54941;52.220;104.306;2023-04-07T06:16:48;1.70;;;0.50;;
68140;SDS011;54941;52.220;104.306;2023-04-07T06:21:44;1.73;;;0.43;;
68140;SDS011;54941;52.220;104.306;2023-04-07T06:24:11;2.60;;;0.50;;
68140;SDS011;54941;52.220;104.306;2023-04-07T06:26:38;2.53;;;1.00;;
68140;SDS011;54941;52.220;104.306;2023-04-07T06:29:05;1.50;;;0.40;;
68140;SDS011;54941;52.220;104.306;2023-04-07T06:31:31;1.45;;;0.50;;
68140;SDS011;54941;52.220;104.306;2023-04-07T06:33:57;1.83;;;0.52;;
68140;SDS011;54941;52.220;104.306;2023-04-07T06:36:26;1.80;;;0.40;;
68140;SDS011;54941;52.220;104.306;2023-04-07T06:38:52;1.42;;;0.50;;
68140;SDS011;54941;52.220;104.306;2023-04-07T06:41:18;1.65;;;0.60;;
68140;SDS011;54941;52.220;104.306;2023-04-07T06:43:45;2.45;;;0.63;;
68140;SDS011;54941;52.220;104.306;2023-04-07T06:46:14;2.67;;;0.73;;
68140;SDS011;54941;52.220;104.306;2023-04-07T06:48:41;1.77;;;0.50;;
68140;SDS011;54941;52.220;104.306;2023-04-07T06:51:07;1.63;;;0.60;;
68140;SDS011;54941;52.220;104.306;2023-04-07T06:53:35;2.47;;;0.60;;
68140;SDS011;54941;52.220;104.306;2023-04-07T06:56:04;2.70;;;0.60;;
68140;SDS011;54941;52.220;104.306;2023-04-07T06:58:31;2.75;;;0.50;;
68140;SDS011;54941;52.220;104.306;2023-04-07T07:00:58;1.80;;;0.60;;
68140;SDS011;54941;52.220;104.306;2023-04-07T07:03:25;1.42;;;0.50;;
68140;SDS011;54941;52.220;104.306;2023-04-07T07:05:51;1.95;;;0.60;;
68140;SDS011;54941;52.220;104.306;2023-04-07T07:08:19;1.40;;;0.55;;
68140;SDS011;54941;52.220;104.306;2023-04-07T07:10:46;1.67;;;0.60;;
68140;SDS011;54941;52.220;104.306;2023-04-07T07:13:13;2.22;;;0.80;;
68140;SDS011;54941;52.220;104.306;2023-04-07T07:15:39;1.10;;;0.35;;
68140;SDS011;54941;52.220;104.306;2023-04-07T07:18:06;3.10;;;0.50;;
68140;SDS011;54941;52.220;104.306;2023-04-07T07:20:32;2.40;;;0.60;;
68140;SDS011;54941;52.220;104.306;2023-04-07T07:22:58;2.45;;;0.73;;
68140;SDS011;54941;52.220;104.306;2023-04-07T07:25:25;1.42;;;0.50;;
68140;SDS011;54941;52.220;104.306;2023-04-07T07:27:53;1.90;;;0.90;;
68140;SDS011;54941;52.220;104.306;2023-04-07T07:30:19;2.42;;;0.65;;
68140;SDS011;54941;52.220;104.306;2023-04-07T07:32:47;1.67;;;0.70;;
68140;SDS011;54941;52.220;104.306;2023-04-07T07:35:15;2.28;;;0.68;;
68140;SDS011;54941;52.220;104.306;2023-04-07T07:37:42;11.63;;;1.48;;
68140;SDS011;54941;52.220;104.306;2023-04-07T07:40:08;2.92;;;0.85;;
68140;SDS011;54941;52.220;104.306;2023-04-07T07:42:35;3.42;;;0.65;;
68140;SDS011;54941;52.220;104.306;2023-04-07T07:45:03;7.90;;;1.08;;
68140;SDS011;54941;52.220;104.306;2023-04-07T07:47:30;5.38;;;0.80;;
68140;SDS011;54941;52.220;104.306;2023-04-07T07:49:57;2.53;;;0.60;;
68140;SDS011;54941;52.220;104.306;2023-04-07T07:52:23;2.38;;;0.50;;
68140;SDS011;54941;52.220;104.306;2023-04-07T07:54:50;2.65;;;0.65;;
68140;SDS011;54941;52.220;104.306;2023-04-07T07:57:17;1.45;;;0.43;;
68140;SDS011;54941;52.220;104.306;2023-04-07T07:59:43;2.08;;;0.50;;
68140;SDS011;54941;52.220;104.306;2023-04-07T08:02:11;4.95;;;0.70;;
68140;SDS011;54941;52.220;104.306;2023-04-07T08:04:37;2.28;;;0.60;;
68140;SDS011;54941;52.220;104.306;2023-04-07T08:07:04;1.63;;;0.70;;
68140;SDS011;54941;52.220;104.306;2023-04-07T08:09:30;2.83;;;0.60;;
68140;SDS011;54941;52.220;104.306;2023-04-07T08:11:56;2.30;;;0.60;;
68140;SDS011;54941;52.220;104.306;2023-04-07T08:14:23;2.33;;;0.60;;
68140;SDS011;54941;52.220;104.306;2023-04-07T08:16:50;2.42;;;0.50;;
68140;SDS011;54941;52.220;104.306;2023-04-07T08:19:17;2.00;;;0.50;;
68140;SDS011;54941;52.220;104.306;2023-04-07T08:21:44;1.50;;;0.50;;
68140;SDS011;54941;52.220;104.306;2023-04-07T08:24:10;2.75;;;0.60;;
68140;SDS011;54941;52.220;104.306;2023-04-07T08:26:39;1.85;;;0.40;;
68140;SDS011;54941;52.220;104.306;2023-04-07T08:29:08;1.52;;;0.55;;
68140;SDS011;54941;52.220;104.306;2023-04-07T08:31:34;6.43;;;1.17;;
68140;SDS011;54941;52.220;104.306;2023-04-07T08:34:03;6.63;;;1.17;;
68140;SDS011;54941;52.220;104.306;2023-04-07T08:36:31;4.40;;;0.98;;
68140;SDS011;54941;52.220;104.306;2023-04-07T08:38:57;3.85;;;0.63;;
68140;SDS011;54941;52.220;104.306;2023-04-07T08:41:26;2.10;;;0.60;;
68140;SDS011;54941;52.220;104.306;2023-04-07T08:44:02;8.10;;;0.98;;
68140;SDS011;54941;52.220;104.306;2023-04-07T08:48:55;3.50;;;0.90;;
68140;SDS011;54941;52.220;104.306;2023-04-07T08:51:23;3.70;;;0.60;;
68140;SDS011;54941;52.220;104.306;2023-04-07T08:53:55;3.78;;;0.85;;
68140;SDS011;54941;52.220;104.306;2023-04-07T08:56:30;2.58;;;0.80;;
68140;SDS011;54941;52.220;104.306;2023-04-07T08:58:57;2.28;;;0.70;;
68140;SDS011;54941;52.220;104.306;2023-04-07T09:01:24;3.85;;;0.80;;
68140;SDS011;54941;52.220;104.306;2023-04-07T09:03:52;2.25;;;0.68;;
68140;SDS011;54941;52.220;104.306;2023-04-07T09:06:21;6.30;;;0.82;;
68140;SDS011;54941;52.220;104.306;2023-04-07T09:08:47;2.42;;;0.95;;
68140;SDS011;54941;52.220;104.306;2023-04-07T09:11:15;3.05;;;0.88;;
68140;SDS011;54941;52.220;104.306;2023-04-07T09:13:42;2.22;;;0.85;;
68140;SDS011;54941;52.220;104.306;2023-04-07T09:16:08;3.00;;;0.70;;
68140;SDS011;54941;52.220;104.306;2023-04-07T09:18:34;5.97;;;0.90;;
68140;SDS011;54941;52.220;104.306;2023-04-07T09:21:04;3.42;;;0.93;;
68140;SDS011;54941;52.220;104.306;2023-04-07T09:23:32;2.78;;;0.90;;
68140;SDS011;54941;52.220;104.306;2023-04-07T09:26:01;2.42;;;0.70;;
68140;SDS011;54941;52.220;104.306;2023-04-07T09:28:50;2.20;;;0.80;;
68140;SDS011;54941;52.220;104.306;2023-04-07T09:31:17;5.43;;;1.20;;
68140;SDS011;54941;52.220;104.306;2023-04-07T09:33:44;3.45;;;1.20;;
68140;SDS011;54941;52.220;104.306;2023-04-07T09:36:20;4.82;;;0.90;;
68140;SDS011;54941;52.220;104.306;2023-04-07T09:38:48;3.05;;;0.75;;
68140;SDS011;54941;52.220;104.306;2023-04-07T09:41:15;3.90;;;0.77;;
68140;SDS011;54941;52.220;104.306;2023-04-07T09:43:43;5.65;;;1.00;;
68140;SDS011;54941;52.220;104.306;2023-04-07T09:46:11;5.40;;;0.90;;
68140;SDS011;54941;52.220;104.306;2023-04-07T09:48:39;3.63;;;1.10;;
68140;SDS011;54941;52.220;104.306;2023-04-07T09:51:09;2.63;;;0.73;;
68140;SDS011;54941;52.220;104.306;2023-04-07T09:53:43;2.85;;;0.80;;
68140;SDS011;54941;52.220;104.306;2023-04-07T09:56:11;2.15;;;1.05;;
68140;SDS011;54941;52.220;104.306;2023-04-07T09:58:38;6.88;;;1.05;;
68140;SDS011;54941;52.220;104.306;2023-04-07T10:01:09;2.22;;;0.60;;
68140;SDS011;54941;52.220;104.306;2023-04-07T10:03:36;2.35;;;0.80;;
68140;SDS011;54941;52.220;104.306;2023-04-07T10:06:04;2.65;;;0.80;;
68140;SDS011;54941;52.220;104.306;2023-04-07T10:08:33;3.08;;;1.08;;
68140;SDS011;54941;52.220;104.306;2023-04-07T10:11:00;2.70;;;1.00;;
68140;SDS011;54941;52.220;104.306;2023-04-07T10:13:30;10.07;;;2.25;;
68140;SDS011;54941;52.220;104.306;2023-04-07T10:15:58;6.50;;;1.10;;
68140;SDS011;54941;52.220;104.306;2023-04-07T10:18:29;4.43;;;1.00;;
68140;SDS011;54941;52.220;104.306;2023-04-07T10:21:00;6.20;;;0.80;;
68140;SDS011;54941;52.220;104.306;2023-04-07T10:23:33;2.20;;;0.80;;
68140;SDS011;54941;52.220;104.306;2023-04-07T10:26:11;3.15;;;0.80;;
68140;SDS011;54941;52.220;104.306;2023-04-07T10:28:41;2.83;;;0.80;;
68140;SDS011;54941;52.220;104.306;2023-04-07T10:31:11;4.65;;;1.00;;
68140;SDS011;54941;52.220;104.306;2023-04-07T10:33:46;3.85;;;0.90;;
68140;SDS011;54941;52.220;104.306;2023-04-07T10:36:13;4.80;;;1.10;;
68140;SDS011;54941;52.220;104.306;2023-04-07T10:38:39;3.83;;;1.30;;
68140;SDS011;54941;52.220;104.306;2023-04-07T10:41:30;5.47;;;1.40;;
68140;SDS011;54941;52.220;104.306;2023-04-07T10:43:57;5.38;;;1.40;;
68140;SDS011;54941;52.220;104.306;2023-04-07T10:46:23;6.10;;;1.20;;
68140;SDS011;54941;52.220;104.306;2023-04-07T10:51:36;6.38;;;1.70;;
68140;SDS011;54941;52.220;104.306;2023-04-07T11:02:44;8.98;;;3.53;;
68140;SDS011;54941;52.220;104.306;2023-04-07T11:05:54;10.68;;;3.28;;
68140;SDS011;54941;52.220;104.306;2023-04-07T11:08:31;15.23;;;3.90;;
68140;SDS011;54941;52.220;104.306;2023-04-07T11:10:57;14.38;;;4.13;;
68140;SDS011;54941;52.220;104.306;2023-04-07T11:13:24;27.70;;;10.73;;
68140;SDS011;54941;52.220;104.306;2023-04-07T11:15:54;21.92;;;9.18;;
68140;SDS011;54941;52.220;104.306;2023-04-07T11:18:20;33.60;;;14.70;;
68140;SDS011;54941;52.220;104.306;2023-04-07T11:20:48;32.47;;;14.13;;
68140;SDS011;54941;52.220;104.306;2023-04-07T11:23:18;21.13;;;8.60;;
68140;SDS011;54941;52.220;104.306;2023-04-07T11:25:46;25.60;;;8.73;;
68140;SDS011;54941;52.220;104.306;2023-04-07T11:28:14;25.10;;;7.40;;
68140;SDS011;54941;52.220;104.306;2023-04-07T11:30:44;32.50;;;7.78;;
68140;SDS011;54941;52.220;104.306;2023-04-07T11:33:15;27.75;;;8.57;;
68140;SDS011;54941;52.220;104.306;2023-04-07T11:35:49;19.02;;;5.32;;
68140;SDS011;54941;52.220;104.306;2023-04-07T11:38:18;19.42;;;6.18;;
68140;SDS011;54941;52.220;104.306;2023-04-07T11:40:44;116.00;;;45.47;;
68140;SDS011;54941;52.220;104.306;2023-04-07T11:43:14;58.22;;;23.85;;
68140;SDS011;54941;52.220;104.306;2023-04-07T11:45:44;56.38;;;23.63;;
68140;SDS011;54941;52.220;104.306;2023-04-07T11:48:28;34.97;;;12.25;;
68140;SDS011;54941;52.220;104.306;2023-04-07T11:50:54;39.42;;;8.25;;
68140;SDS011;54941;52.220;104.306;2023-04-07T11:53:26;18.67;;;6.80;;
68140;SDS011;54941;52.220;104.306;2023-04-07T11:56:00;33.53;;;7.55;;
68140;SDS011;54941;52.220;104.306;2023-04-07T11:58:30;23.42;;;5.78;;
68140;SDS011;54941;52.220;104.306;2023-04-07T12:03:23;16.75;;;5.43;;
68140;SDS011;54941;52.220;104.306;2023-04-07T12:05:51;11.55;;;4.75;;
68140;SDS011;54941;52.220;104.306;2023-04-07T12:08:17;18.65;;;5.15;;
68140;SDS011;54941;52.220;104.306;2023-04-07T12:10:47;25.52;;;6.07;;
68140;SDS011;54941;52.220;104.306;2023-04-07T12:13:14;22.70;;;5.93;;
68140;SDS011;54941;52.220;104.306;2023-04-07T12:15:40;17.02;;;5.00;;
68140;SDS011;54941;52.220;104.306;2023-04-07T12:18:06;20.17;;;5.07;;
68140;SDS011;54941;52.220;104.306;2023-04-07T12:20:33;28.65;;;6.28;;
68140;SDS011;54941;52.220;104.306;2023-04-07T12:22:59;26.30;;;5.50;;
68140;SDS011;54941;52.220;104.306;2023-04-07T12:25:26;15.05;;;4.68;;
68140;SDS011;54941;52.220;104.306;2023-04-07T12:27:53;27.73;;;6.18;;
68140;SDS011;54941;52.220;104.306;2023-04-07T12:30:20;20.02;;;6.00;;
68140;SDS011;54941;52.220;104.306;2023-04-07T12:32:46;11.93;;;4.50;;
68140;SDS011;54941;52.220;104.306;2023-04-07T12:35:13;25.00;;;6.65;;
68140;SDS011;54941;52.220;104.306;2023-04-07T12:37:39;10.82;;;5.00;;
68140;SDS011;54941;52.220;104.306;2023-04-07T12:40:06;33.17;;;6.60;;
68140;SDS011;54941;52.220;104.306;2023-04-07T12:42:33;27.02;;;7.90;;
68140;SDS011;54941;52.220;104.306;2023-04-07T12:45:01;19.75;;;5.97;;
68140;SDS011;54941;52.220;104.306;2023-04-07T12:47:29;15.45;;;5.93;;
68140;SDS011;54941;52.220;104.306;2023-04-07T12:49:55;15.77;;;6.07;;
68140;SDS011;54941;52.220;104.306;2023-04-07T12:52:21;20.55;;;5.45;;
68140;SDS011;54941;52.220;104.306;2023-04-07T12:54:48;24.02;;;6.25;;
68140;SDS011;54941;52.220;104.306;2023-04-07T12:57:14;17.40;;;5.78;;
68140;SDS011;54941;52.220;104.306;2023-04-07T12:59:41;13.57;;;4.97;;
68140;SDS011;54941;52.220;104.306;2023-04-07T13:04:38;21.60;;;5.82;;
68140;SDS011;54941;52.220;104.306;2023-04-07T13:07:04;22.30;;;5.50;;
68140;SDS011;54941;52.220;104.306;2023-04-07T13:09:31;17.05;;;5.20;;
68140;SDS011;54941;52.220;104.306;2023-04-07T13:11:58;30.45;;;7.15;;
68140;SDS011;54941;52.220;104.306;2023-04-07T13:14:24;16.90;;;6.53;;
68140;SDS011;54941;52.220;104.306;2023-04-07T13:16:51;11.70;;;4.68;;
68140;SDS011;54941;52.220;104.306;2023-04-07T13:19:18;14.50;;;4.88;;
68140;SDS011;54941;52.220;104.306;2023-04-07T13:21:45;12.38;;;5.70;;
68140;SDS011;54941;52.220;104.306;2023-04-07T13:24:11;15.13;;;6.22;;
68140;SDS011;54941;52.220;104.306;2023-04-07T13:26:38;21.05;;;7.18;;
68140;SDS011;54941;52.220;104.306;2023-04-07T13:29:04;18.48;;;6.60;;
68140;SDS011;54941;52.220;104.306;2023-04-07T13:31:31;14.23;;;7.00;;
68140;SDS011;54941;52.220;104.306;2023-04-07T13:34:00;19.08;;;5.93;;
68140;SDS011;54941;52.220;104.306;2023-04-07T13:36:28;22.58;;;7.95;;
68140;SDS011;54941;52.220;104.306;2023-04-07T13:38:54;25.90;;;7.40;;
68140;SDS011;54941;52.220;104.306;2023-04-07T13:41:21;31.42;;;7.82;;
68140;SDS011;54941;52.220;104.306;2023-04-07T13:43:48;32.58;;;7.82;;
68140;SDS011;54941;52.220;104.306;2023-04-07T13:46:14;26.25;;;7.50;;
68140;SDS011;54941;52.220;104.306;2023-04-07T13:48:40;21.70;;;7.82;;
68140;SDS011;54941;52.220;104.306;2023-04-07T13:51:07;25.75;;;7.28;;
68140;SDS011;54941;52.220;104.306;2023-04-07T13:53:36;26.85;;;7.05;;
68140;SDS011;54941;52.220;104.306;2023-04-07T13:56:02;15.93;;;5.93;;
68140;SDS011;54941;52.220;104.306;2023-04-07T13:58:29;25.88;;;6.18;;
68140;SDS011;54941;52.220;104.306;2023-04-07T14:00:55;13.70;;;4.95;;
68140;SDS011;54941;52.220;104.306;2023-04-07T14:03:21;17.80;;;5.07;;
68140;SDS011;54941;52.220;104.306;2023-04-07T14:05:48;13.50;;;5.35;;
68140;SDS011;54941;52.220;104.306;2023-04-07T14:08:17;14.57;;;5.45;;
68140;SDS011;54941;52.220;104.306;2023-04-07T14:10:50;17.40;;;5.95;;
68140;SDS011;54941;52.220;104.306;2023-04-07T14:13:16;30.27;;;8.95;;
68140;SDS011;54941;52.220;104.306;2023-04-07T14:15:44;31.23;;;8.20;;
68140;SDS011;54941;52.220;104.306;2023-04-07T14:18:13;17.38;;;6.25;;
68140;SDS011;54941;52.220;104.306;2023-04-07T14:20:40;28.77;;;8.27;;
68140;SDS011;54941;52.220;104.306;2023-04-07T14:23:15;25.83;;;6.93;;
68140;SDS011;54941;52.220;104.306;2023-04-07T14:25:41;16.88;;;6.78;;
68140;SDS011;54941;52.220;104.306;2023-04-07T14:28:09;22.52;;;8.00;;
68140;SDS011;54941;52.220;104.306;2023-04-07T14:30:36;22.65;;;7.18;;
68140;SDS011;54941;52.220;104.306;2023-04-07T14:35:31;27.63;;;7.60;;
68140;SDS011;54941;52.220;104.306;2023-04-07T14:38:02;20.17;;;7.13;;
68140;SDS011;54941;52.220;104.306;2023-04-07T14:40:31;16.75;;;6.13;;
68140;SDS011;54941;52.220;104.306;2023-04-07T14:42:59;19.10;;;6.40;;
68140;SDS011;54941;52.220;104.306;2023-04-07T14:45:29;25.00;;;7.68;;
68140;SDS011;54941;52.220;104.306;2023-04-07T14:47:57;26.50;;;7.68;;
68140;SDS011;54941;52.220;104.306;2023-04-07T14:50:30;20.35;;;6.90;;
68140;SDS011;54941;52.220;104.306;2023-04-07T14:52:57;21.67;;;6.65;;